Searanger — VREG3 — position and weather

sailwx.info

Track history (hours):
 
Tides and Currents Weather Stations Pressure Air Temp Water Temp Dewpoint Dewpoint Depression Visibility Wind Speed Wind Dir Waves Ship Positions

Searanger

Last reported at 2017-Nov-04 05:55 UTC. Time now 2017-Nov-20 21:32 UTC.
Position N 36°54' E 000°07'.
Warning: this ship's position is 16 days out of date.

Length 243 m; draft 12.9 m.

Type: Tanker. MMSI: 477192100.

Date/timePositionNaut miles runAvg speedWind from/ knotsBaromVisibWave heightAir tempDewpointWater temp
2017-Nov-04 05:55N 36°54' E 000°07'26613.3
2017-Nov-03 09:58N 35°60' W 005°17'26011.2
2017-Nov-02 10:50N 38°05' W 010°02'512.9
2017-Nov-02 10:25N 38°10' W 010°03'513.0
2017-Nov-02 10:00N 38°15' W 010°04'613.0
2017-Nov-02 09:30N 38°22' W 010°06'713.2
2017-Nov-02 09:00N 38°28' W 010°08'713.5
2017-Nov-02 08:30N 38°35' W 010°10'612.9
2017-Nov-02 08:00N 38°41' W 010°12'612.6
2017-Nov-02 07:30N 38°47' W 010°12'713.2
2017-Nov-02 07:00N 38°54' W 010°12'713.1
2017-Nov-02 06:30N 39°00' W 010°12'612.6
2017-Nov-02 06:00N 39°07' W 010°12'713.0
2017-Nov-02 05:30N 39°13' W 010°12'35312.6
2017-Nov-01 01:26N 45°01' W 008°53'512.8
2017-Nov-01 01:00N 45°06' W 008°50'1312.9
2017-Oct-31 23:58N 45°18' W 008°41'713.1
2017-Oct-31 23:27N 45°24' W 008°36'913.3
2017-Oct-31 22:45N 45°32' W 008°30'413.1
2017-Oct-31 22:28N 45°35' W 008°28'613.4
2017-Oct-31 22:00N 45°41' W 008°23'1413.4
2017-Oct-31 20:59N 45°52' W 008°14'713.1
2017-Oct-31 20:27N 45°59' W 008°09'913.4
2017-Oct-31 19:46N 46°07' W 008°02'513.4
2017-Oct-31 19:22N 46°11' W 007°59'613.3
2017-Oct-31 18:54N 46°17' W 007°54'1413.3
2017-Oct-31 17:53N 46°29' W 007°45'913.4
2017-Oct-31 17:11N 46°37' W 007°38'3913.1
2017-Oct-31 14:11N 47°11' W 007°11'612.9
2017-Oct-31 13:44N 47°16' W 007°07'313.1
2017-Oct-31 13:30N 47°19' W 007°05'613.0
2017-Oct-31 13:01N 47°25' W 007°00'612.7
2017-Oct-31 12:30N 47°30' W 006°56'612.5
2017-Oct-31 12:00N 47°36' W 006°51'712.2
2017-Oct-31 11:24N 47°42' W 006°46'512.5
2017-Oct-31 10:59N 47°47' W 006°42'712.4
2017-Oct-31 10:23N 47°53' W 006°37'512.5
2017-Oct-31 09:58N 47°58' W 006°33'612.6
2017-Oct-31 09:28N 48°04' W 006°29'712.8
2017-Oct-31 08:55N 48°10' W 006°24'613.2
2017-Oct-31 08:30N 48°14' W 006°20'813.4
2017-Oct-31 07:55N 48°21' W 006°14'513.5
2017-Oct-31 07:31N 48°26' W 006°10'714.0
2017-Oct-31 06:59N 48°33' W 006°05'813.9
2017-Oct-31 06:22N 48°40' W 005°59'514.2
2017-Oct-31 06:00N 48°45' W 005°55'814.2
2017-Oct-31 05:27N 48°52' W 005°49'713.7
2017-Oct-31 04:58N 48°56' W 005°42'714.0
2017-Oct-31 04:27N 49°00' W 005°33'613.7
2017-Oct-31 04:01N 49°04' W 005°25'712.5
2017-Oct-31 03:26N 49°08' W 005°17'510.2
2017-Oct-31 02:55N 49°12' W 005°11'4 9.6
2017-Oct-31 02:30N 49°14' W 005°06'810.7
2017-Oct-31 01:47N 49°17' W 004°55'412.4
2017-Oct-31 01:30N 49°20' W 004°52'812.6
2017-Oct-31 00:50N 49°26' W 004°43'412.6
2017-Oct-31 00:30N 49°28' W 004°37'712.7
2017-Oct-30 23:57N 49°32' W 004°28'613.0
2017-Oct-30 23:29N 49°35' W 004°20'613.0
2017-Oct-30 23:00N 49°38' W 004°12'713.1
2017-Oct-30 22:29N 49°41' W 004°02'913.7
2017-Oct-30 21:49N 49°46' W 003°51'414.0
2017-Oct-30 21:30N 49°49' W 003°45'814.1
2017-Oct-30 20:56N 49°53' W 003°34'714.2
2017-Oct-30 20:27N 49°55' W 003°24'714.1
2017-Oct-30 19:58N 49°56' W 003°14'614.1
2017-Oct-30 19:30N 49°58' W 003°04'713.8
2017-Oct-30 19:00N 49°60' W 002°54'713.5
2017-Oct-30 18:30N 50°02' W 002°44'713.1
2017-Oct-30 18:00N 50°04' W 002°34'712.6
2017-Oct-30 17:29N 50°06' W 002°24'912.1
2017-Oct-30 16:46N 50°08' W 002°11'311.8
2017-Oct-30 16:28N 50°09' W 002°06'611.7
2017-Oct-30 16:00N 50°11' W 001°58'611.6
2017-Oct-30 15:30N 50°12' W 001°49'611.8
2017-Oct-30 15:01N 50°13' W 001°40'612.1
2017-Oct-30 14:30N 50°14' W 001°31'5714.2
2017-Oct-30 10:30N 50°28' W 000°05'714.8
2017-Oct-30 10:00N 50°30' E 000°07'714.8
2017-Oct-30 09:30N 50°32' E 000°18'714.7
2017-Oct-30 09:01N 50°34' E 000°29'714.4
2017-Oct-30 08:30N 50°37' E 000°39'714.2
2017-Oct-30 08:00N 50°41' E 000°49'714.1
2017-Oct-30 07:31N 50°45' E 000°58'713.8
2017-Oct-30 07:01N 50°49' E 001°06'713.8
2017-Oct-30 06:30N 50°53' E 001°15'1214.6
2017-Oct-30 05:42N 51°02' E 001°28'315.2
2017-Oct-30 05:29N 51°04' E 001°32'715.3
2017-Oct-30 05:00N 51°09' E 001°40'815.0
2017-Oct-30 04:30N 51°15' E 001°48'815.2
2017-Oct-30 04:00N 51°21' E 001°55'612.3
2017-Oct-30 03:30N 51°24' E 002°04'612.6
2017-Oct-30 03:00N 51°21' E 002°13'612.8
2017-Oct-30 02:30N 51°21' E 002°23'713.8
2017-Oct-30 02:00N 51°23' E 002°34'612.5
2017-Oct-30 01:30N 51°24' E 002°44'611.7
2017-Oct-30 01:00N 51°25' E 002°53'612.4
2017-Oct-30 00:31N 51°25' E 003°03'713.2
2017-Oct-30 00:00N 51°25' E 003°13'713.8
2017-Oct-29 23:31N 51°25' E 003°24'612.7
2017-Oct-29 23:00N 51°26' E 003°34'5 9.6
2017-Oct-29 22:30N 51°25' E 003°42'611.9
2017-Oct-29 22:00N 51°21' E 003°48'612.0
2017-Oct-29 21:30N 51°23' E 003°57'3 6.5
2017-Oct-29 21:00N 51°25' E 004°02'5 9.1
2017-Oct-29 20:30N 51°22' E 004°08'3 6.5
2017-Oct-29 20:00N 51°22' E 004°13'3 5.2
2017-Oct-29 19:30N 51°21' E 004°17'0 0.0
2017-Oct-29 19:00N 51°21' E 004°17'0 0.0
2017-Oct-29 18:30N 51°21' E 004°17'0 0.6
2017-Oct-29 18:00N 51°21' E 004°18'2 4.0
2017-Oct-29 17:30N 51°19' E 004°19'2 4.0
2017-Oct-29 17:00N 51°17' E 004°20'1 1.5
2017-Oct-29 16:30N 51°16' E 004°21'0 0.2
2017-Oct-29 16:01N 51°16' E 004°21'0 0.0
2017-Oct-29 15:30N 51°16' E 004°21'0 0.0
2017-Oct-29 15:00N 51°16' E 004°21'0 0.0
2017-Oct-29 14:30N 51°16' E 004°21'0 0.0
2017-Oct-29 14:01N 51°16' E 004°21'0 0.0
2017-Oct-29 13:30N 51°16' E 004°21'0 0.0
2017-Oct-29 13:00N 51°16' E 004°21'0 0.0
2017-Oct-29 12:30N 51°16' E 004°21'0 0.0
2017-Oct-29 12:00N 51°16' E 004°21'0 0.0
2017-Oct-29 11:30N 51°16' E 004°21'0 0.0
2017-Oct-29 11:00N 51°16' E 004°21'0 0.0
2017-Oct-29 10:30N 51°16' E 004°21'0 0.0
2017-Oct-29 10:00N 51°16' E 004°21'0 0.0
2017-Oct-29 09:18N 51°16' E 004°21'0 0.0
2017-Oct-29 09:00N 51°16' E 004°21'0 0.0
2017-Oct-29 08:30N 51°16' E 004°21'0 0.0
2017-Oct-29 08:00N 51°16' E 004°21'0 0.0
2017-Oct-29 07:30N 51°16' E 004°21'0 0.0
2017-Oct-29 07:00N 51°16' E 004°21'0 0.0
2017-Oct-29 06:30N 51°16' E 004°21'0 0.0
2017-Oct-29 06:00N 51°16' E 004°21'0 0.0
2017-Oct-29 05:30N 51°16' E 004°21'0 0.0
2017-Oct-29 05:00N 51°16' E 004°21'0 0.0
2017-Oct-29 04:30N 51°16' E 004°21'0 0.0
2017-Oct-29 04:00N 51°16' E 004°21'0 0.0
2017-Oct-28 18:57N 51°16' E 004°21'0 0.0
2017-Oct-28 18:27N 51°16' E 004°21'0 0.0
2017-Oct-28 18:00N 51°16' E 004°21'0 0.0
2017-Oct-28 17:30N 51°16' E 004°21'0 0.0
2017-Oct-28 17:00N 51°16' E 004°21'0 0.0
2017-Oct-28 16:27N 51°16' E 004°21'0 0.0
2017-Oct-28 16:00N 51°16' E 004°21'0 0.0
2017-Oct-28 15:30N 51°16' E 004°21'0 0.0
2017-Oct-28 15:00N 51°16' E 004°21'0 0.0
2017-Oct-28 14:30N 51°16' E 004°21'0 0.0
2017-Oct-28 13:54N 51°16' E 004°21'0 0.0
2017-Oct-28 13:21N 51°16' E 004°21'0 0.0
2017-Oct-28 12:57N 51°16' E 004°21'0 0.0
2017-Oct-28 12:24N 51°16' E 004°21'0 0.0
2017-Oct-28 12:00N 51°16' E 004°21'0 0.0
2017-Oct-28 11:27N 51°16' E 004°21'0 0.0
2017-Oct-28 10:57N 51°16' E 004°21'0 0.0
2017-Oct-28 10:30N 51°16' E 004°21'0 0.0
2017-Oct-28 10:00N 51°16' E 004°21'0 0.0
2017-Oct-28 09:30N 51°16' E 004°21'0 0.0
2017-Oct-28 09:00N 51°16' E 004°21'0 0.0
2017-Oct-28 08:30N 51°16' E 004°21'0 0.0
2017-Oct-28 08:00N 51°16' E 004°21'0 0.0
2017-Oct-28 07:30N 51°16' E 004°21'0 0.0
2017-Oct-28 07:00N 51°16' E 004°21'0 0.0
2017-Oct-28 06:30N 51°16' E 004°21'0 0.0
2017-Oct-28 06:00N 51°16' E 004°21'0 0.0
2017-Oct-28 05:30N 51°16' E 004°21'0 0.0
2017-Oct-28 05:00N 51°16' E 004°21'0 0.0
2017-Oct-28 04:30N 51°16' E 004°21'0 0.0
2017-Oct-28 04:00N 51°16' E 004°21'0 0.0
2017-Oct-28 03:30N 51°16' E 004°21'0 0.0
2017-Oct-28 03:00N 51°16' E 004°21'0 0.0
2017-Oct-28 02:30N 51°16' E 004°21'0 0.0
2017-Oct-28 01:57N 51°16' E 004°21'0 0.0
2017-Oct-28 01:30N 51°16' E 004°21'0 0.0
2017-Oct-28 00:57N 51°16' E 004°21'0 0.0
2017-Oct-28 00:30N 51°16' E 004°21'0 0.0
2017-Oct-28 00:00N 51°16' E 004°21'0 0.0
2017-Oct-27 23:24N 51°16' E 004°21'0 0.0
2017-Oct-27 23:00N 51°16' E 004°21'0 0.0
2017-Oct-27 22:30N 51°16' E 004°21'0 0.0
2017-Oct-27 22:00N 51°16' E 004°21'0 0.0
2017-Oct-27 21:30N 51°16' E 004°21'0 0.0
2017-Oct-27 21:00N 51°16' E 004°21'0 0.0
2017-Oct-27 20:30N 51°16' E 004°21'0 0.0
2017-Oct-27 20:00N 51°16' E 004°21'0 0.0
2017-Oct-27 19:30N 51°16' E 004°21'0 0.0
2017-Oct-27 19:00N 51°16' E 004°21'0 0.0
2017-Oct-27 18:30N 51°16' E 004°21'0 0.0
2017-Oct-27 18:00N 51°16' E 004°21'0 0.0
2017-Oct-27 17:27N 51°16' E 004°21'0 0.0
2017-Oct-27 17:00N 51°16' E 004°21'0 0.0
2017-Oct-27 16:27N 51°16' E 004°21'0 0.0
2017-Oct-27 16:00N 51°16' E 004°21'0 0.0
2017-Oct-27 15:30N 51°16' E 004°21'0 0.0
2017-Oct-27 15:00N 51°16' E 004°21'0 0.0
2017-Oct-27 14:30N 51°16' E 004°21'0 0.0
2017-Oct-27 13:54N 51°16' E 004°21'0 0.0
2017-Oct-27 13:27N 51°16' E 004°21'0 0.0
2017-Oct-27 13:00N 51°16' E 004°21'0 0.0
2017-Oct-27 12:30N 51°16' E 004°21'0 0.0
2017-Oct-27 12:00N 51°16' E 004°21'0 0.0
2017-Oct-27 11:30N 51°16' E 004°21'0 0.0
2017-Oct-27 10:57N 51°16' E 004°21'0 0.0
2017-Oct-27 10:27N 51°16' E 004°21'0 0.0
2017-Oct-27 10:00N 51°16' E 004°21'0 0.0
2017-Oct-27 09:30N 51°16' E 004°21'0 0.0
2017-Oct-27 09:00N 51°16' E 004°21'0 0.0
2017-Oct-27 08:30N 51°16' E 004°21'0 0.0
2017-Oct-27 07:54N 51°16' E 004°21'0 0.0
2017-Oct-27 07:27N 51°16' E 004°21'0 0.0
2017-Oct-27 07:00N 51°16' E 004°21'0 0.0
2017-Oct-27 06:30N 51°16' E 004°21'0 0.0
2017-Oct-27 06:00N 51°16' E 004°21'0 0.0
2017-Oct-27 05:30N 51°16' E 004°21'0 0.0
2017-Oct-27 05:00N 51°16' E 004°21'0 0.0
2017-Oct-27 04:30N 51°16' E 004°21'0 0.0
2017-Oct-27 04:00N 51°16' E 004°21'0 0.0
2017-Oct-27 03:30N 51°16' E 004°21'0 0.0
2017-Oct-27 03:00N 51°16' E 004°21'0 0.0
2017-Oct-27 02:27N 51°16' E 004°21'0 0.0
2017-Oct-27 01:48N 51°16' E 004°21'0 0.0
2017-Oct-27 01:30N 51°16' E 004°21'0 0.0
2017-Oct-27 01:00N 51°16' E 004°21'0 0.0
2017-Oct-27 00:30N 51°16' E 004°21'0 0.0
2017-Oct-27 00:00N 51°16' E 004°21'0 0.0
2017-Oct-26 23:30N 51°16' E 004°21'0 0.0
2017-Oct-26 23:00N 51°16' E 004°21'0 0.0
2017-Oct-26 22:30N 51°16' E 004°21'0 0.0
2017-Oct-26 22:00N 51°16' E 004°21'0 0.0
2017-Oct-26 21:30N 51°16' E 004°21'0 0.0
2017-Oct-26 21:00N 51°16' E 004°21'0 0.0
2017-Oct-26 20:30N 51°16' E 004°21'0 0.0
2017-Oct-26 19:57N 51°16' E 004°21'0 0.0
2017-Oct-26 19:30N 51°16' E 004°21'0 0.0
2017-Oct-26 18:57N 51°16' E 004°21'0 0.0
2017-Oct-26 18:30N 51°16' E 004°21'0 0.0
2017-Oct-26 18:00N 51°16' E 004°21'0 0.0
2017-Oct-26 17:30N 51°16' E 004°21'0 0.0
2017-Oct-26 17:00N 51°16' E 004°21'0 0.0
2017-Oct-26 16:30N 51°16' E 004°21'0 0.0
2017-Oct-26 15:57N 51°16' E 004°21'0 0.0
2017-Oct-26 15:30N 51°16' E 004°21'0 0.0
2017-Oct-26 14:57N 51°16' E 004°21'0 0.0
2017-Oct-26 14:30N 51°16' E 004°21'0 0.0
2017-Oct-26 14:00N 51°16' E 004°21'0 0.0
2017-Oct-26 13:30N 51°16' E 004°21'0 0.0
2017-Oct-26 13:00N 51°16' E 004°21'0 0.0
2017-Oct-26 12:30N 51°16' E 004°21'0 0.0
2017-Oct-26 12:00N 51°16' E 004°21'0 0.0
2017-Oct-26 11:30N 51°16' E 004°21'0 0.0
2017-Oct-26 11:00N 51°16' E 004°21'0 0.0
2017-Oct-26 10:30N 51°16' E 004°21'0 0.0
2017-Oct-26 10:00N 51°16' E 004°21'0 0.0
2017-Oct-26 09:30N 51°16' E 004°21'0 0.0
2017-Oct-26 09:00N 51°16' E 004°21'0 0.0
2017-Oct-26 08:27N 51°16' E 004°21'0 0.0
2017-Oct-26 07:54N 51°16' E 004°21'0 0.0
2017-Oct-26 07:30N 51°16' E 004°21'0 0.0
2017-Oct-26 07:00N 51°16' E 004°21'0 0.0
2017-Oct-26 06:30N 51°16' E 004°21'0 0.0
2017-Oct-26 06:00N 51°16' E 004°21'0 0.0
2017-Oct-26 05:30N 51°16' E 004°21'0 0.0
2017-Oct-26 05:00N 51°16' E 004°21'0 0.0
2017-Oct-26 04:30N 51°16' E 004°21'0 0.0
2017-Oct-26 03:57N 51°16' E 004°21'0 0.0
2017-Oct-26 03:30N 51°16' E 004°21'0 0.0
2017-Oct-26 03:00N 51°16' E 004°21'0 0.0
2017-Oct-26 02:27N 51°16' E 004°21'0 0.0
2017-Oct-26 02:00N 51°16' E 004°21'0 0.0
2017-Oct-26 01:30N 51°16' E 004°21'0 0.0
2017-Oct-26 01:00N 51°16' E 004°21'0 0.0
2017-Oct-26 00:30N 51°16' E 004°21'0 0.0
2017-Oct-26 00:00N 51°16' E 004°21'0 0.0
2017-Oct-25 23:24N 51°16' E 004°21'0 0.0
2017-Oct-25 23:00N 51°16' E 004°21'0 0.0
2017-Oct-25 22:30N 51°16' E 004°21'0 0.0
2017-Oct-25 22:00N 51°16' E 004°21'0 0.0
2017-Oct-25 21:27N 51°16' E 004°21'0 0.0
2017-Oct-25 21:00N 51°16' E 004°21'0 0.0
2017-Oct-25 20:30N 51°16' E 004°21'0 0.0
2017-Oct-25 19:57N 51°16' E 004°21'0 0.0
2017-Oct-25 19:30N 51°16' E 004°21'0 0.0
2017-Oct-25 19:00N 51°16' E 004°21'0 0.0
2017-Oct-25 18:30N 51°16' E 004°21'0 0.0
2017-Oct-25 18:00N 51°16' E 004°21'0 0.0
2017-Oct-25 17:30N 51°16' E 004°21'0 0.0
2017-Oct-25 17:00N 51°16' E 004°21'0 0.0
2017-Oct-25 16:30N 51°16' E 004°21'0 0.0
2017-Oct-25 16:00N 51°16' E 004°21'0 0.0
2017-Oct-25 15:30N 51°16' E 004°21'0 0.0
2017-Oct-25 15:00N 51°16' E 004°21'0 0.0
2017-Oct-25 14:30N 51°16' E 004°21'0 0.0
2017-Oct-25 13:57N 51°16' E 004°21'0 0.0
2017-Oct-25 13:27N 51°16' E 004°21'0 0.0
2017-Oct-25 13:00N 51°16' E 004°21'0 0.0
2017-Oct-25 12:24N 51°16' E 004°21'0 0.0
2017-Oct-25 12:00N 51°16' E 004°21'0 0.0
2017-Oct-25 11:30N 51°16' E 004°21'0 0.0
2017-Oct-25 11:00N 51°16' E 004°21'0 0.0
2017-Oct-25 10:30N 51°16' E 004°21'0 0.0
2017-Oct-25 10:00N 51°16' E 004°21'0 0.0
2017-Oct-25 09:30N 51°16' E 004°21'0 0.0
2017-Oct-25 09:00N 51°16' E 004°21'0 0.0
2017-Oct-25 08:30N 51°16' E 004°21'0 0.0
2017-Oct-25 08:00N 51°16' E 004°21'0 0.0
2017-Oct-25 07:30N 51°16' E 004°21'0 0.0
2017-Oct-25 07:00N 51°16' E 004°21'0 0.0
2017-Oct-25 06:30N 51°16' E 004°21'0 0.0
2017-Oct-25 05:57N 51°16' E 004°21'  
Track history (hours):
 
Tides and Currents Weather Stations Pressure Air Temp Water Temp Dewpoint Dewpoint Depression Visibility Wind Speed Wind Dir Waves Ship Positions

Searanger

Last reported at 2017-Nov-04 05:55 UTC. Time now 2017-Nov-20 21:32 UTC.
Position N 36°54' E 000°07'.
Warning: this ship's position is 16 days out of date.

Length 243 m; draft 12.9 m.

Type: Tanker. MMSI: 477192100.

Date/timePositionNaut miles runAvg speedWind from/ knotsBaromVisibWave heightAir tempDewpointWater temp
2017-Nov-04 05:55N 36°54' E 000°07'26613.3
2017-Nov-03 09:58N 35°60' W 005°17'26011.2
2017-Nov-02 10:50N 38°05' W 010°02'512.9
2017-Nov-02 10:25N 38°10' W 010°03'513.0
2017-Nov-02 10:00N 38°15' W 010°04'613.0
2017-Nov-02 09:30N 38°22' W 010°06'713.2
2017-Nov-02 09:00N 38°28' W 010°08'713.5
2017-Nov-02 08:30N 38°35' W 010°10'612.9
2017-Nov-02 08:00N 38°41' W 010°12'612.6
2017-Nov-02 07:30N 38°47' W 010°12'713.2
2017-Nov-02 07:00N 38°54' W 010°12'713.1
2017-Nov-02 06:30N 39°00' W 010°12'612.6
2017-Nov-02 06:00N 39°07' W 010°12'713.0
2017-Nov-02 05:30N 39°13' W 010°12'35312.6
2017-Nov-01 01:26N 45°01' W 008°53'512.8
2017-Nov-01 01:00N 45°06' W 008°50'1312.9
2017-Oct-31 23:58N 45°18' W 008°41'713.1
2017-Oct-31 23:27N 45°24' W 008°36'913.3
2017-Oct-31 22:45N 45°32' W 008°30'413.1
2017-Oct-31 22:28N 45°35' W 008°28'613.4
2017-Oct-31 22:00N 45°41' W 008°23'1413.4
2017-Oct-31 20:59N 45°52' W 008°14'713.1
2017-Oct-31 20:27N 45°59' W 008°09'913.4
2017-Oct-31 19:46N 46°07' W 008°02'513.4
2017-Oct-31 19:22N 46°11' W 007°59'613.3
2017-Oct-31 18:54N 46°17' W 007°54'1413.3
2017-Oct-31 17:53N 46°29' W 007°45'913.4
2017-Oct-31 17:11N 46°37' W 007°38'3913.1
2017-Oct-31 14:11N 47°11' W 007°11'612.9
2017-Oct-31 13:44N 47°16' W 007°07'313.1
2017-Oct-31 13:30N 47°19' W 007°05'613.0
2017-Oct-31 13:01N 47°25' W 007°00'612.7
2017-Oct-31 12:30N 47°30' W 006°56'612.5
2017-Oct-31 12:00N 47°36' W 006°51'712.2
2017-Oct-31 11:24N 47°42' W 006°46'512.5
2017-Oct-31 10:59N 47°47' W 006°42'712.4
2017-Oct-31 10:23N 47°53' W 006°37'512.5
2017-Oct-31 09:58N 47°58' W 006°33'612.6
2017-Oct-31 09:28N 48°04' W 006°29'712.8
2017-Oct-31 08:55N 48°10' W 006°24'613.2
2017-Oct-31 08:30N 48°14' W 006°20'813.4
2017-Oct-31 07:55N 48°21' W 006°14'513.5
2017-Oct-31 07:31N 48°26' W 006°10'714.0
2017-Oct-31 06:59N 48°33' W 006°05'813.9
2017-Oct-31 06:22N 48°40' W 005°59'514.2
2017-Oct-31 06:00N 48°45' W 005°55'814.2
2017-Oct-31 05:27N 48°52' W 005°49'713.7
2017-Oct-31 04:58N 48°56' W 005°42'714.0
2017-Oct-31 04:27N 49°00' W 005°33'613.7
2017-Oct-31 04:01N 49°04' W 005°25'712.5
2017-Oct-31 03:26N 49°08' W 005°17'510.2
2017-Oct-31 02:55N 49°12' W 005°11'4 9.6
2017-Oct-31 02:30N 49°14' W 005°06'810.7
2017-Oct-31 01:47N 49°17' W 004°55'412.4
2017-Oct-31 01:30N 49°20' W 004°52'812.6
2017-Oct-31 00:50N 49°26' W 004°43'412.6
2017-Oct-31 00:30N 49°28' W 004°37'712.7
2017-Oct-30 23:57N 49°32' W 004°28'613.0
2017-Oct-30 23:29N 49°35' W 004°20'613.0
2017-Oct-30 23:00N 49°38' W 004°12'713.1
2017-Oct-30 22:29N 49°41' W 004°02'913.7
2017-Oct-30 21:49N 49°46' W 003°51'414.0
2017-Oct-30 21:30N 49°49' W 003°45'814.1
2017-Oct-30 20:56N 49°53' W 003°34'714.2
2017-Oct-30 20:27N 49°55' W 003°24'714.1
2017-Oct-30 19:58N 49°56' W 003°14'614.1
2017-Oct-30 19:30N 49°58' W 003°04'713.8
2017-Oct-30 19:00N 49°60' W 002°54'713.5
2017-Oct-30 18:30N 50°02' W 002°44'713.1
2017-Oct-30 18:00N 50°04' W 002°34'712.6
2017-Oct-30 17:29N 50°06' W 002°24'912.1
2017-Oct-30 16:46N 50°08' W 002°11'311.8
2017-Oct-30 16:28N 50°09' W 002°06'611.7
2017-Oct-30 16:00N 50°11' W 001°58'611.6
2017-Oct-30 15:30N 50°12' W 001°49'611.8
2017-Oct-30 15:01N 50°13' W 001°40'612.1
2017-Oct-30 14:30N 50°14' W 001°31'5714.2
2017-Oct-30 10:30N 50°28' W 000°05'714.8
2017-Oct-30 10:00N 50°30' E 000°07'714.8
2017-Oct-30 09:30N 50°32' E 000°18'714.7
2017-Oct-30 09:01N 50°34' E 000°29'714.4
2017-Oct-30 08:30N 50°37' E 000°39'714.2
2017-Oct-30 08:00N 50°41' E 000°49'714.1
2017-Oct-30 07:31N 50°45' E 000°58'713.8
2017-Oct-30 07:01N 50°49' E 001°06'713.8
2017-Oct-30 06:30N 50°53' E 001°15'1214.6
2017-Oct-30 05:42N 51°02' E 001°28'315.2
2017-Oct-30 05:29N 51°04' E 001°32'715.3
2017-Oct-30 05:00N 51°09' E 001°40'815.0
2017-Oct-30 04:30N 51°15' E 001°48'815.2
2017-Oct-30 04:00N 51°21' E 001°55'612.3
2017-Oct-30 03:30N 51°24' E 002°04'612.6
2017-Oct-30 03:00N 51°21' E 002°13'612.8
2017-Oct-30 02:30N 51°21' E 002°23'713.8
2017-Oct-30 02:00N 51°23' E 002°34'612.5
2017-Oct-30 01:30N 51°24' E 002°44'611.7
2017-Oct-30 01:00N 51°25' E 002°53'612.4
2017-Oct-30 00:31N 51°25' E 003°03'713.2
2017-Oct-30 00:00N 51°25' E 003°13'713.8
2017-Oct-29 23:31N 51°25' E 003°24'612.7
2017-Oct-29 23:00N 51°26' E 003°34'5 9.6
2017-Oct-29 22:30N 51°25' E 003°42'611.9
2017-Oct-29 22:00N 51°21' E 003°48'612.0
2017-Oct-29 21:30N 51°23' E 003°57'3 6.5
2017-Oct-29 21:00N 51°25' E 004°02'5 9.1
2017-Oct-29 20:30N 51°22' E 004°08'3 6.5
2017-Oct-29 20:00N 51°22' E 004°13'3 5.2
2017-Oct-29 19:30N 51°21' E 004°17'0 0.0
2017-Oct-29 19:00N 51°21' E 004°17'0 0.0
2017-Oct-29 18:30N 51°21' E 004°17'0 0.6
2017-Oct-29 18:00N 51°21' E 004°18'2 4.0
2017-Oct-29 17:30N 51°19' E 004°19'2 4.0
2017-Oct-29 17:00N 51°17' E 004°20'1 1.5
2017-Oct-29 16:30N 51°16' E 004°21'0 0.2
2017-Oct-29 16:01N 51°16' E 004°21'0 0.0
2017-Oct-29 15:30N 51°16' E 004°21'0 0.0
2017-Oct-29 15:00N 51°16' E 004°21'0 0.0
2017-Oct-29 14:30N 51°16' E 004°21'0 0.0
2017-Oct-29 14:01N 51°16' E 004°21'0 0.0
2017-Oct-29 13:30N 51°16' E 004°21'0 0.0
2017-Oct-29 13:00N 51°16' E 004°21'0 0.0
2017-Oct-29 12:30N 51°16' E 004°21'0 0.0
2017-Oct-29 12:00N 51°16' E 004°21'0 0.0
2017-Oct-29 11:30N 51°16' E 004°21'0 0.0
2017-Oct-29 11:00N 51°16' E 004°21'0 0.0
2017-Oct-29 10:30N 51°16' E 004°21'0 0.0
2017-Oct-29 10:00N 51°16' E 004°21'0 0.0
2017-Oct-29 09:18N 51°16' E 004°21'0 0.0
2017-Oct-29 09:00N 51°16' E 004°21'0 0.0
2017-Oct-29 08:30N 51°16' E 004°21'0 0.0
2017-Oct-29 08:00N 51°16' E 004°21'0 0.0
2017-Oct-29 07:30N 51°16' E 004°21'0 0.0
2017-Oct-29 07:00N 51°16' E 004°21'0 0.0
2017-Oct-29 06:30N 51°16' E 004°21'0 0.0
2017-Oct-29 06:00N 51°16' E 004°21'0 0.0
2017-Oct-29 05:30N 51°16' E 004°21'0 0.0
2017-Oct-29 05:00N 51°16' E 004°21'0 0.0
2017-Oct-29 04:30N 51°16' E 004°21'0 0.0
2017-Oct-29 04:00N 51°16' E 004°21'0 0.0
2017-Oct-28 18:57N 51°16' E 004°21'0 0.0
2017-Oct-28 18:27N 51°16' E 004°21'0 0.0
2017-Oct-28 18:00N 51°16' E 004°21'0 0.0
2017-Oct-28 17:30N 51°16' E 004°21'0 0.0
2017-Oct-28 17:00N 51°16' E 004°21'0 0.0
2017-Oct-28 16:27N 51°16' E 004°21'0 0.0
2017-Oct-28 16:00N 51°16' E 004°21'0 0.0
2017-Oct-28 15:30N 51°16' E 004°21'0 0.0
2017-Oct-28 15:00N 51°16' E 004°21'0 0.0
2017-Oct-28 14:30N 51°16' E 004°21'0 0.0
2017-Oct-28 13:54N 51°16' E 004°21'0 0.0
2017-Oct-28 13:21N 51°16' E 004°21'0 0.0
2017-Oct-28 12:57N 51°16' E 004°21'0 0.0
2017-Oct-28 12:24N 51°16' E 004°21'0 0.0
2017-Oct-28 12:00N 51°16' E 004°21'0 0.0
2017-Oct-28 11:27N 51°16' E 004°21'0 0.0
2017-Oct-28 10:57N 51°16' E 004°21'0 0.0
2017-Oct-28 10:30N 51°16' E 004°21'0 0.0
2017-Oct-28 10:00N 51°16' E 004°21'0 0.0
2017-Oct-28 09:30N 51°16' E 004°21'0 0.0
2017-Oct-28 09:00N 51°16' E 004°21'0 0.0
2017-Oct-28 08:30N 51°16' E 004°21'0 0.0
2017-Oct-28 08:00N 51°16' E 004°21'0 0.0
2017-Oct-28 07:30N 51°16' E 004°21'0 0.0
2017-Oct-28 07:00N 51°16' E 004°21'0 0.0
2017-Oct-28 06:30N 51°16' E 004°21'0 0.0
2017-Oct-28 06:00N 51°16' E 004°21'0 0.0
2017-Oct-28 05:30N 51°16' E 004°21'0 0.0
2017-Oct-28 05:00N 51°16' E 004°21'0 0.0
2017-Oct-28 04:30N 51°16' E 004°21'0 0.0
2017-Oct-28 04:00N 51°16' E 004°21'0 0.0
2017-Oct-28 03:30N 51°16' E 004°21'0 0.0
2017-Oct-28 03:00N 51°16' E 004°21'0 0.0
2017-Oct-28 02:30N 51°16' E 004°21'0 0.0
2017-Oct-28 01:57N 51°16' E 004°21'0 0.0
2017-Oct-28 01:30N 51°16' E 004°21'0 0.0
2017-Oct-28 00:57N 51°16' E 004°21'0 0.0
2017-Oct-28 00:30N 51°16' E 004°21'0 0.0
2017-Oct-28 00:00N 51°16' E 004°21'0 0.0
2017-Oct-27 23:24N 51°16' E 004°21'0 0.0
2017-Oct-27 23:00N 51°16' E 004°21'0 0.0
2017-Oct-27 22:30N 51°16' E 004°21'0 0.0
2017-Oct-27 22:00N 51°16' E 004°21'0 0.0
2017-Oct-27 21:30N 51°16' E 004°21'0 0.0
2017-Oct-27 21:00N 51°16' E 004°21'0 0.0
2017-Oct-27 20:30N 51°16' E 004°21'0 0.0
2017-Oct-27 20:00N 51°16' E 004°21'0 0.0
2017-Oct-27 19:30N 51°16' E 004°21'0 0.0
2017-Oct-27 19:00N 51°16' E 004°21'0 0.0
2017-Oct-27 18:30N 51°16' E 004°21'0 0.0
2017-Oct-27 18:00N 51°16' E 004°21'0 0.0
2017-Oct-27 17:27N 51°16' E 004°21'0 0.0
2017-Oct-27 17:00N 51°16' E 004°21'0 0.0
2017-Oct-27 16:27N 51°16' E 004°21'0 0.0
2017-Oct-27 16:00N 51°16' E 004°21'0 0.0
2017-Oct-27 15:30N 51°16' E 004°21'0 0.0
2017-Oct-27 15:00N 51°16' E 004°21'0 0.0
2017-Oct-27 14:30N 51°16' E 004°21'0 0.0
2017-Oct-27 13:54N 51°16' E 004°21'0 0.0
2017-Oct-27 13:27N 51°16' E 004°21'0 0.0
2017-Oct-27 13:00N 51°16' E 004°21'0 0.0
2017-Oct-27 12:30N 51°16' E 004°21'0 0.0
2017-Oct-27 12:00N 51°16' E 004°21'0 0.0
2017-Oct-27 11:30N 51°16' E 004°21'0 0.0
2017-Oct-27 10:57N 51°16' E 004°21'0 0.0
2017-Oct-27 10:27N 51°16' E 004°21'0 0.0
2017-Oct-27 10:00N 51°16' E 004°21'0 0.0
2017-Oct-27 09:30N 51°16' E 004°21'0 0.0
2017-Oct-27 09:00N 51°16' E 004°21'0 0.0
2017-Oct-27 08:30N 51°16' E 004°21'0 0.0
2017-Oct-27 07:54N 51°16' E 004°21'0 0.0
2017-Oct-27 07:27N 51°16' E 004°21'0 0.0
2017-Oct-27 07:00N 51°16' E 004°21'0 0.0
2017-Oct-27 06:30N 51°16' E 004°21'0 0.0
2017-Oct-27 06:00N 51°16' E 004°21'0 0.0
2017-Oct-27 05:30N 51°16' E 004°21'0 0.0
2017-Oct-27 05:00N 51°16' E 004°21'0 0.0
2017-Oct-27 04:30N 51°16' E 004°21'0 0.0
2017-Oct-27 04:00N 51°16' E 004°21'0 0.0
2017-Oct-27 03:30N 51°16' E 004°21'0 0.0
2017-Oct-27 03:00N 51°16' E 004°21'0 0.0
2017-Oct-27 02:27N 51°16' E 004°21'0 0.0
2017-Oct-27 01:48N 51°16' E 004°21'0 0.0
2017-Oct-27 01:30N 51°16' E 004°21'0 0.0
2017-Oct-27 01:00N 51°16' E 004°21'0 0.0
2017-Oct-27 00:30N 51°16' E 004°21'0 0.0
2017-Oct-27 00:00N 51°16' E 004°21'0 0.0
2017-Oct-26 23:30N 51°16' E 004°21'0 0.0
2017-Oct-26 23:00N 51°16' E 004°21'0 0.0
2017-Oct-26 22:30N 51°16' E 004°21'0 0.0
2017-Oct-26 22:00N 51°16' E 004°21'0 0.0
2017-Oct-26 21:30N 51°16' E 004°21'0 0.0
2017-Oct-26 21:00N 51°16' E 004°21'0 0.0
2017-Oct-26 20:30N 51°16' E 004°21'0 0.0
2017-Oct-26 19:57N 51°16' E 004°21'0 0.0
2017-Oct-26 19:30N 51°16' E 004°21'0 0.0
2017-Oct-26 18:57N 51°16' E 004°21'0 0.0
2017-Oct-26 18:30N 51°16' E 004°21'0 0.0
2017-Oct-26 18:00N 51°16' E 004°21'0 0.0
2017-Oct-26 17:30N 51°16' E 004°21'0 0.0
2017-Oct-26 17:00N 51°16' E 004°21'0 0.0
2017-Oct-26 16:30N 51°16' E 004°21'0 0.0
2017-Oct-26 15:57N 51°16' E 004°21'0 0.0
2017-Oct-26 15:30N 51°16' E 004°21'0 0.0
2017-Oct-26 14:57N 51°16' E 004°21'0 0.0
2017-Oct-26 14:30N 51°16' E 004°21'0 0.0
2017-Oct-26 14:00N 51°16' E 004°21'0 0.0
2017-Oct-26 13:30N 51°16' E 004°21'0 0.0
2017-Oct-26 13:00N 51°16' E 004°21'0 0.0
2017-Oct-26 12:30N 51°16' E 004°21'0 0.0
2017-Oct-26 12:00N 51°16' E 004°21'0 0.0
2017-Oct-26 11:30N 51°16' E 004°21'0 0.0
2017-Oct-26 11:00N 51°16' E 004°21'0 0.0
2017-Oct-26 10:30N 51°16' E 004°21'0 0.0
2017-Oct-26 10:00N 51°16' E 004°21'0 0.0
2017-Oct-26 09:30N 51°16' E 004°21'0 0.0
2017-Oct-26 09:00N 51°16' E 004°21'0 0.0
2017-Oct-26 08:27N 51°16' E 004°21'0 0.0
2017-Oct-26 07:54N 51°16' E 004°21'0 0.0
2017-Oct-26 07:30N 51°16' E 004°21'0 0.0
2017-Oct-26 07:00N 51°16' E 004°21'0 0.0
2017-Oct-26 06:30N 51°16' E 004°21'0 0.0
2017-Oct-26 06:00N 51°16' E 004°21'0 0.0
2017-Oct-26 05:30N 51°16' E 004°21'0 0.0
2017-Oct-26 05:00N 51°16' E 004°21'0 0.0
2017-Oct-26 04:30N 51°16' E 004°21'0 0.0
2017-Oct-26 03:57N 51°16' E 004°21'0 0.0
2017-Oct-26 03:30N 51°16' E 004°21'0 0.0
2017-Oct-26 03:00N 51°16' E 004°21'0 0.0
2017-Oct-26 02:27N 51°16' E 004°21'0 0.0
2017-Oct-26 02:00N 51°16' E 004°21'0 0.0
2017-Oct-26 01:30N 51°16' E 004°21'0 0.0
2017-Oct-26 01:00N 51°16' E 004°21'0 0.0
2017-Oct-26 00:30N 51°16' E 004°21'0 0.0
2017-Oct-26 00:00N 51°16' E 004°21'0 0.0
2017-Oct-25 23:24N 51°16' E 004°21'0 0.0
2017-Oct-25 23:00N 51°16' E 004°21'0 0.0
2017-Oct-25 22:30N 51°16' E 004°21'0 0.0
2017-Oct-25 22:00N 51°16' E 004°21'0 0.0
2017-Oct-25 21:27N 51°16' E 004°21'0 0.0
2017-Oct-25 21:00N 51°16' E 004°21'0 0.0
2017-Oct-25 20:30N 51°16' E 004°21'0 0.0
2017-Oct-25 19:57N 51°16' E 004°21'0 0.0
2017-Oct-25 19:30N 51°16' E 004°21'0 0.0
2017-Oct-25 19:00N 51°16' E 004°21'0 0.0
2017-Oct-25 18:30N 51°16' E 004°21'0 0.0
2017-Oct-25 18:00N 51°16' E 004°21'0 0.0
2017-Oct-25 17:30N 51°16' E 004°21'0 0.0
2017-Oct-25 17:00N 51°16' E 004°21'0 0.0
2017-Oct-25 16:30N 51°16' E 004°21'0 0.0
2017-Oct-25 16:00N 51°16' E 004°21'0 0.0
2017-Oct-25 15:30N 51°16' E 004°21'0 0.0
2017-Oct-25 15:00N 51°16' E 004°21'0 0.0
2017-Oct-25 14:30N 51°16' E 004°21'0 0.0
2017-Oct-25 13:57N 51°16' E 004°21'0 0.0
2017-Oct-25 13:27N 51°16' E 004°21'0 0.0
2017-Oct-25 13:00N 51°16' E 004°21'0 0.0
2017-Oct-25 12:24N 51°16' E 004°21'0 0.0
2017-Oct-25 12:00N 51°16' E 004°21'0 0.0
2017-Oct-25 11:30N 51°16' E 004°21'0 0.0
2017-Oct-25 11:00N 51°16' E 004°21'0 0.0
2017-Oct-25 10:30N 51°16' E 004°21'0 0.0
2017-Oct-25 10:00N 51°16' E 004°21'0 0.0
2017-Oct-25 09:30N 51°16' E 004°21'0 0.0
2017-Oct-25 09:00N 51°16' E 004°21'0 0.0
2017-Oct-25 08:30N 51°16' E 004°21'0 0.0
2017-Oct-25 08:00N 51°16' E 004°21'0 0.0
2017-Oct-25 07:30N 51°16' E 004°21'0 0.0
2017-Oct-25 07:00N 51°16' E 004°21'0 0.0
2017-Oct-25 06:30N 51°16' E 004°21'0 0.0
2017-Oct-25 05:57N 51°16' E 004°21'  

Dump ship's entire track history